Time;durP1;ratioP1;P1;durP2;ratioP2;P2;SDS_P1;SDS_P2;PMS_P1;PMS_P2;Temp;Humidity;BMP_temperature;BMP_pressure;BME280_temperature;BME280_humidity;BME280_pressure;Samples;Min_cycle;Max_cycle;Signal;HPM_P1;HPM_P2
2021/06/20 00:01:46;;;;;;;7.10;6.45;;;;;;;;;;5034344;28;20294;-81
2021/06/20 00:04:12;;;;;;;6.75;6.15;;;;;;;;;;5034750;28;20056;-81
2021/06/20 00:06:38;;;;;;;7.47;6.78;;;;;;;;;;5040955;28;20029;-80
2021/06/20 00:09:12;;;;;;;7.10;6.43;;;;;;;;;;5040087;28;20028;-81
2021/06/20 00:11:39;;;;;;;7.10;6.40;;;;;;;;;;5039448;28;20025;-81
2021/06/20 00:14:06;;;;;;;7.40;6.80;;;;;;;;;;5041100;28;20025;-81
2021/06/20 00:16:33;;;;;;;8.43;7.47;;;;;;;;;;5039411;28;20033;-81
2021/06/20 00:18:59;;;;;;;7.28;6.57;;;;;;;;;;5039703;28;20485;-80
2021/06/20 00:21:25;;;;;;;8.32;6.57;;;;;;;;;;5040732;28;20124;-81
2021/06/20 00:23:51;;;;;;;7.45;6.82;;;;;;;;;;5039373;28;20044;-81
2021/06/20 00:26:17;;;;;;;7.55;6.65;;;;;;;;;;5039803;28;20044;-81
2021/06/20 00:28:44;;;;;;;7.97;7.28;;;;;;;;;;5040239;28;20018;-81
2021/06/20 00:31:10;;;;;;;7.75;6.85;;;;;;;;;;5031225;28;20104;-80
2021/06/20 00:33:36;;;;;;;6.88;6.25;;;;;;;;;;5039193;28;20072;-81
2021/06/20 00:36:02;;;;;;;7.22;6.63;;;;;;;;;;5041029;28;20021;-81
2021/06/20 00:38:28;;;;;;;7.15;6.40;;;;;;;;;;5040529;28;20053;-81
2021/06/20 00:40:54;;;;;;;10.30;7.35;;;;;;;;;;5040458;28;20021;-81
2021/06/20 00:43:21;;;;;;;6.97;6.35;;;;;;;;;;5039019;28;20088;-81
2021/06/20 00:45:47;;;;;;;6.30;5.72;;;;;;;;;;5039300;28;20045;-81
2021/06/20 00:48:13;;;;;;;6.47;5.90;;;;;;;;;;5041505;28;20088;-81
2021/06/20 00:50:39;;;;;;;6.28;5.78;;;;;;;;;;5043780;28;20017;-80
2021/06/20 00:53:05;;;;;;;6.72;6.13;;;;;;;;;;5047315;28;20052;-81
2021/06/20 00:55:33;;;;;;;6.35;5.80;;;;;;;;;;5038828;28;20113;-81
2021/06/20 00:58:00;;;;;;;6.55;5.95;;;;;;;;;;5039214;28;20025;-81
2021/06/20 01:00:27;;;;;;;7.10;6.50;;;;;;;;;;5036470;28;20037;-82
2021/06/20 01:02:53;;;;;;;6.85;6.20;;;;;;;;;;5033403;28;20029;-82
2021/06/20 01:05:20;;;;;;;6.00;5.50;;;;;;;;;;5020557;28;20044;-81
2021/06/20 01:07:49;;;;;;;6.07;5.57;;;;;;;;;;5038793;28;20018;-82
2021/06/20 01:10:15;;;;;;;5.70;5.18;;;;;;;;;;5039202;28;20100;-82
2021/06/20 01:12:42;;;;;;;6.13;5.60;;;;;;;;;;5039590;28;20026;-81
2021/06/20 01:15:09;;;;;;;6.30;5.72;;;;;;;;;;5038861;28;20039;-80
2021/06/20 01:17:35;;;;;;;6.10;5.50;;;;;;;;;;5046607;28;20079;-82
2021/06/20 01:20:01;;;;;;;6.60;6.00;;;;;;;;;;5039214;28;20033;-81
2021/06/20 01:22:31;;;;;;;6.38;5.82;;;;;;;;;;5037750;28;20433;-81
2021/06/20 01:24:58;;;;;;;6.90;6.28;;;;;;;;;;5036119;28;20022;-81
2021/06/20 01:27:25;;;;;;;5.80;5.32;;;;;;;;;;5036768;28;20025;-81
2021/06/20 01:29:52;;;;;;;5.75;5.25;;;;;;;;;;5036745;28;20474;-81
2021/06/20 01:32:18;;;;;;;6.40;5.90;;;;;;;;;;5010829;28;20033;-81
2021/06/20 01:34:45;;;;;;;6.90;6.25;;;;;;;;;;5018970;28;20036;-81
2021/06/20 01:37:12;;;;;;;7.53;6.25;;;;;;;;;;5038224;28;20509;-81
2021/06/20 01:39:38;;;;;;;7.55;6.75;;;;;;;;;;5039360;28;20089;-80
2021/06/20 01:42:05;;;;;;;6.38;5.88;;;;;;;;;;5039347;28;20499;-81
2021/06/20 01:44:31;;;;;;;6.38;5.88;;;;;;;;;;5039592;28;20029;-81
2021/06/20 01:46:57;;;;;;;6.45;5.93;;;;;;;;;;5039262;28;20036;-82
2021/06/20 01:49:23;;;;;;;6.35;5.85;;;;;;;;;;5040382;28;20041;-81
2021/06/20 01:51:50;;;;;;;5.72;5.25;;;;;;;;;;5048125;28;20118;-81
2021/06/20 01:54:16;;;;;;;6.15;5.60;;;;;;;;;;5037361;28;20026;-82
2021/06/20 01:56:42;;;;;;;6.68;6.07;;;;;;;;;;5037457;28;20502;-83
2021/06/20 01:59:08;;;;;;;6.85;6.25;;;;;;;;;;5038095;28;20033;-82
2021/06/20 02:01:34;;;;;;;6.53;5.93;;;;;;;;;;5031271;28;20021;-83
2021/06/20 02:04:00;;;;;;;6.10;5.60;;;;;;;;;;5042737;28;20068;-82
2021/06/20 02:06:26;;;;;;;6.07;5.57;;;;;;;;;;5040452;28;20053;-82
2021/06/20 02:08:52;;;;;;;6.40;5.90;;;;;;;;;;5042671;28;20033;-83
2021/06/20 02:11:18;;;;;;;5.72;5.22;;;;;;;;;;5021164;28;20089;-83
2021/06/20 02:13:44;;;;;;;6.60;5.97;;;;;;;;;;5021692;28;20024;-83
2021/06/20 02:16:10;;;;;;;6.00;5.50;;;;;;;;;;5041166;28;20025;-82
2021/06/20 02:18:36;;;;;;;6.97;6.38;;;;;;;;;;5040642;28;20039;-83
2021/06/20 02:21:02;;;;;;;6.32;5.82;;;;;;;;;;5042017;28;20021;-83
2021/06/20 02:23:29;;;;;;;7.60;6.90;;;;;;;;;;5042311;28;20390;-83
2021/06/20 02:25:55;;;;;;;10.90;7.15;;;;;;;;;;5042678;28;20024;-83
2021/06/20 02:28:21;;;;;;;7.30;6.63;;;;;;;;;;5024537;28;20029;-82
2021/06/20 02:30:47;;;;;;;7.50;6.82;;;;;;;;;;5016940;28;20059;-83
2021/06/20 02:33:14;;;;;;;7.40;6.70;;;;;;;;;;5025009;28;20031;-83
2021/06/20 02:35:40;;;;;;;7.18;6.57;;;;;;;;;;5022825;28;20049;-83
2021/06/20 02:38:06;;;;;;;7.03;6.43;;;;;;;;;;5034830;28;20029;-83
2021/06/20 02:40:32;;;;;;;6.20;5.47;;;;;;;;;;5048904;28;20071;-82
2021/06/20 02:42:58;;;;;;;6.13;5.53;;;;;;;;;;5051467;28;20389;-82
2021/06/20 02:45:24;;;;;;;6.05;5.55;;;;;;;;;;5049712;28;20048;-83
2021/06/20 02:47:50;;;;;;;5.75;5.20;;;;;;;;;;5046837;28;20025;-82
2021/06/20 02:50:17;;;;;;;6.05;5.55;;;;;;;;;;5037678;28;20105;-81
2021/06/20 02:52:44;;;;;;;8.75;6.88;;;;;;;;;;5041408;28;20036;-83
2021/06/20 02:55:11;;;;;;;6.90;6.20;;;;;;;;;;5041034;28;20037;-83
2021/06/20 02:57:37;;;;;;;6.97;6.28;;;;;;;;;;5042333;28;20021;-83
2021/06/20 03:00:04;;;;;;;5.90;5.22;;;;;;;;;;5043339;28;20109;-83
2021/06/20 03:02:30;;;;;;;6.05;4.95;;;;;;;;;;5046255;28;20033;-83
2021/06/20 03:04:57;;;;;;;5.97;5.47;;;;;;;;;;5043260;28;20025;-83
2021/06/20 03:07:23;;;;;;;5.40;5.00;;;;;;;;;;5042570;28;20026;-83
2021/06/20 03:09:50;;;;;;;5.53;4.97;;;;;;;;;;5043781;28;20057;-83
2021/06/20 03:12:16;;;;;;;5.55;5.15;;;;;;;;;;5048756;28;20398;-83
2021/06/20 03:14:43;;;;;;;5.97;5.47;;;;;;;;;;5045022;28;20049;-83
2021/06/20 03:17:09;;;;;;;6.45;5.70;;;;;;;;;;5027768;28;20068;-83
2021/06/20 03:19:36;;;;;;;6.80;6.15;;;;;;;;;;5039269;28;20032;-83
2021/06/20 03:22:03;;;;;;;7.20;6.50;;;;;;;;;;5026970;28;20109;-83
2021/06/20 03:24:30;;;;;;;7.00;6.38;;;;;;;;;;5020872;28;20473;-83
2021/06/20 03:26:56;;;;;;;6.72;6.13;;;;;;;;;;5020417;28;20025;-83
2021/06/20 03:29:22;;;;;;;10.52;6.30;;;;;;;;;;5009953;28;20070;-83
2021/06/20 03:31:49;;;;;;;6.88;6.15;;;;;;;;;;5039977;28;20021;-83
2021/06/20 03:34:15;;;;;;;9.02;7.47;;;;;;;;;;5039169;28;20029;-83
2021/06/20 03:36:41;;;;;;;6.90;6.30;;;;;;;;;;5039690;28;20441;-83
2021/06/20 03:39:08;;;;;;;6.60;6.00;;;;;;;;;;5039608;28;20033;-83
2021/06/20 03:41:34;;;;;;;7.07;6.38;;;;;;;;;;5039153;28;20104;-82
2021/06/20 03:44:00;;;;;;;6.43;5.82;;;;;;;;;;5039523;28;20037;-82
2021/06/20 03:46:26;;;;;;;6.80;6.20;;;;;;;;;;5039546;28;20028;-82
2021/06/20 03:48:52;;;;;;;9.52;6.10;;;;;;;;;;5014621;28;20355;-83
2021/06/20 03:51:18;;;;;;;7.20;6.50;;;;;;;;;;5027307;28;20026;-84
2021/06/20 03:53:45;;;;;;;8.75;6.18;;;;;;;;;;5019567;28;20450;-83
2021/06/20 03:56:11;;;;;;;6.85;6.35;;;;;;;;;;5021478;28;20050;-83
2021/06/20 03:58:38;;;;;;;6.60;6.05;;;;;;;;;;5020587;28;20030;-84
2021/06/20 04:01:04;;;;;;;5.63;5.13;;;;;;;;;;5033840;28;20544;-83
2021/06/20 04:03:30;;;;;;;7.85;7.05;;;;;;;;;;5039366;28;20039;-82
2021/06/20 04:05:57;;;;;;;6.97;6.35;;;;;;;;;;5040225;28;20037;-82
2021/06/20 04:08:23;;;;;;;6.78;6.18;;;;;;;;;;5039223;28;20025;-83
2021/06/20 04:10:49;;;;;;;6.70;6.10;;;;;;;;;;5039096;28;20025;-83
2021/06/20 04:13:15;;;;;;;6.72;6.13;;;;;;;;;;5039748;28;20087;-82
2021/06/20 04:15:41;;;;;;;7.57;6.40;;;;;;;;;;5038835;28;20099;-83
2021/06/20 04:18:07;;;;;;;7.40;6.25;;;;;;;;;;5031713;28;20021;-80
2021/06/20 04:20:34;;;;;;;7.07;6.43;;;;;;;;;;5016271;28;20540;-80
2021/06/20 04:23:00;;;;;;;6.47;5.88;;;;;;;;;;5035388;28;20072;-81
2021/06/20 04:25:26;;;;;;;7.18;6.50;;;;;;;;;;5037241;28;20029;-81
2021/06/20 04:27:52;;;;;;;7.50;6.00;;;;;;;;;;5037247;28;20533;-81
2021/06/20 04:30:19;;;;;;;6.53;5.90;;;;;;;;;;5037530;28;20385;-81
2021/06/20 04:32:46;;;;;;;6.35;5.75;;;;;;;;;;5037617;28;20136;-81
2021/06/20 04:35:13;;;;;;;6.82;6.22;;;;;;;;;;5037091;28;20040;-83
2021/06/20 04:37:40;;;;;;;6.72;6.10;;;;;;;;;;5037102;28;20032;-82
2021/06/20 04:40:07;;;;;;;7.75;6.20;;;;;;;;;;5019665;28;20111;-82
2021/06/20 04:42:35;;;;;;;6.65;6.15;;;;;;;;;;5036078;28;20021;-81
2021/06/20 04:45:02;;;;;;;10.07;7.30;;;;;;;;;;5036799;28;20052;-81
2021/06/20 04:47:29;;;;;;;7.72;7.00;;;;;;;;;;5018669;28;20029;-81
2021/06/20 04:49:55;;;;;;;9.05;7.38;;;;;;;;;;5036931;28;20097;-81
2021/06/20 04:52:21;;;;;;;10.30;8.48;;;;;;;;;;5018003;28;20076;-81
2021/06/20 04:54:50;;;;;;;8.95;7.93;;;;;;;;;;5036927;28;20040;-80
2021/06/20 04:57:18;;;;;;;8.85;7.88;;;;;;;;;;5036690;28;20025;-78
2021/06/20 04:59:44;;;;;;;14.07;8.70;;;;;;;;;;5037441;28;20036;-83
2021/06/20 05:02:10;;;;;;;8.30;7.50;;;;;;;;;;5038282;28;20398;-80
2021/06/20 05:04:37;;;;;;;8.98;8.07;;;;;;;;;;5037332;28;20414;-81
2021/06/20 05:07:04;;;;;;;8.52;7.68;;;;;;;;;;5039825;28;20017;-80
2021/06/20 05:09:30;;;;;;;8.80;7.57;;;;;;;;;;5033060;28;20401;-81
2021/06/20 05:11:56;;;;;;;8.15;7.45;;;;;;;;;;4999639;28;20089;-81
2021/06/20 05:14:22;;;;;;;7.40;6.70;;;;;;;;;;5024324;28;20033;-81
2021/06/20 05:16:48;;;;;;;7.70;6.90;;;;;;;;;;5035329;28;20051;-81
2021/06/20 05:19:14;;;;;;;9.48;8.15;;;;;;;;;;5011145;28;20088;-81
2021/06/20 05:21:40;;;;;;;7.38;6.75;;;;;;;;;;5013208;28;20030;-81
2021/06/20 05:24:06;;;;;;;7.00;6.30;;;;;;;;;;5037314;28;20029;-81
2021/06/20 05:26:32;;;;;;;7.75;7.00;;;;;;;;;;5035424;28;20084;-81
2021/06/20 05:28:58;;;;;;;8.25;6.57;;;;;;;;;;5037832;28;20025;-81
2021/06/20 05:31:24;;;;;;;10.38;7.15;;;;;;;;;;5020518;28;20099;-81
2021/06/20 05:33:50;;;;;;;8.32;6.72;;;;;;;;;;5038549;28;20022;-82
2021/06/20 05:36:17;;;;;;;10.18;7.50;;;;;;;;;;5029317;28;20037;-80
2021/06/20 05:38:44;;;;;;;8.05;6.32;;;;;;;;;;5022494;28;20032;-81
2021/06/20 05:41:10;;;;;;;7.38;6.65;;;;;;;;;;5034484;28;20471;-81
2021/06/20 05:43:36;;;;;;;12.65;7.30;;;;;;;;;;5031992;28;20467;-81
2021/06/20 05:46:02;;;;;;;10.93;7.40;;;;;;;;;;5027476;28;20159;-81
2021/06/20 05:48:28;;;;;;;11.93;6.80;;;;;;;;;;5021076;28;20029;-82
2021/06/20 05:50:54;;;;;;;11.60;6.95;;;;;;;;;;5038932;28;20036;-82
2021/06/20 05:53:20;;;;;;;9.70;6.60;;;;;;;;;;5039850;28;20038;-82
2021/06/20 05:55:46;;;;;;;14.35;7.20;;;;;;;;;;5041778;28;20356;-82
2021/06/20 05:58:13;;;;;;;10.77;6.70;;;;;;;;;;5041578;28;20049;-82
2021/06/20 06:00:39;;;;;;;17.08;7.32;;;;;;;;;;5042061;28;20025;-82
2021/06/20 06:03:05;;;;;;;12.07;6.60;;;;;;;;;;5041939;28;20029;-82
2021/06/20 06:05:31;;;;;;;13.48;7.20;;;;;;;;;;5023844;28;20355;-81
2021/06/20 06:07:58;;;;;;;13.27;6.65;;;;;;;;;;5027248;28;20084;-82
2021/06/20 06:10:25;;;;;;;13.45;6.40;;;;;;;;;;5033103;28;20033;-80
2021/06/20 06:12:51;;;;;;;9.77;6.00;;;;;;;;;;5029569;28;20033;-81
2021/06/20 06:15:17;;;;;;;15.27;7.25;;;;;;;;;;5041809;28;20053;-80
2021/06/20 06:17:43;;;;;;;9.43;6.05;;;;;;;;;;5023963;28;20033;-82
2021/06/20 06:20:10;;;;;;;20.70;7.93;;;;;;;;;;5022732;28;20108;-81
2021/06/20 06:22:36;;;;;;;15.60;6.65;;;;;;;;;;5022357;28;20038;-82
2021/06/20 06:25:04;;;;;;;14.43;6.80;;;;;;;;;;5010219;28;20033;-83
2021/06/20 06:27:30;;;;;;;18.13;7.05;;;;;;;;;;5033467;28;20057;-80
2021/06/20 06:29:56;;;;;;;12.85;6.22;;;;;;;;;;5032001;28;20120;-80
2021/06/20 06:32:22;;;;;;;15.18;6.97;;;;;;;;;;5030561;28;20025;-81
2021/06/20 06:34:48;;;;;;;18.80;6.47;;;;;;;;;;5039759;28;20029;-79
2021/06/20 06:37:38;;;;;;;13.32;6.50;;;;;;;;;;5034873;28;20028;-84
2021/06/20 06:40:05;;;;;;;22.33;7.90;;;;;;;;;;5027565;28;20037;-84
2021/06/20 06:42:31;;;;;;;15.65;6.95;;;;;;;;;;5002027;28;20033;-80
2021/06/20 06:44:57;;;;;;;19.98;7.22;;;;;;;;;;5020695;28;20045;-80
2021/06/20 06:47:24;;;;;;;17.20;7.40;;;;;;;;;;5022665;28;20025;-82
2021/06/20 06:49:50;;;;;;;21.02;8.45;;;;;;;;;;5018478;28;20029;-82
2021/06/20 06:52:17;;;;;;;15.00;6.72;;;;;;;;;;5042324;28;20033;-82
2021/06/20 06:54:51;;;;;;;22.05;7.45;;;;;;;;;;5022783;28;20041;-82
2021/06/20 06:57:20;;;;;;;19.35;6.93;;;;;;;;;;5020385;28;20085;-83
2021/06/20 06:59:46;;;;;;;19.88;7.40;;;;;;;;;;5019927;28;20110;-81
2021/06/20 07:02:13;;;;;;;18.45;6.25;;;;;;;;;;5019995;28;20025;-82
2021/06/20 07:04:39;;;;;;;15.15;6.75;;;;;;;;;;5032077;28;20032;-82
2021/06/20 07:07:05;;;;;;;12.68;6.13;;;;;;;;;;5039313;28;20030;-81
2021/06/20 07:09:31;;;;;;;17.23;6.32;;;;;;;;;;5039099;28;20048;-81
2021/06/20 07:11:58;;;;;;;16.75;6.47;;;;;;;;;;5039739;28;20037;-81
2021/06/20 07:14:24;;;;;;;15.95;6.68;;;;;;;;;;5031298;28;20065;-82
2021/06/20 07:16:50;;;;;;;21.75;7.28;;;;;;;;;;5038860;28;20045;-82
2021/06/20 07:19:16;;;;;;;18.70;7.38;;;;;;;;;;5037555;28;20114;-82
2021/06/20 07:21:42;;;;;;;15.32;6.80;;;;;;;;;;5032339;28;20029;-82
2021/06/20 07:24:10;;;;;;;25.20;7.78;;;;;;;;;;5036773;28;20085;-82
2021/06/20 07:26:36;;;;;;;17.50;8.13;;;;;;;;;;5019393;28;20041;-82
2021/06/20 07:29:03;;;;;;;15.68;6.40;;;;;;;;;;5001472;28;20032;-81
2021/06/20 07:31:29;;;;;;;17.90;6.82;;;;;;;;;;5019402;28;20030;-82
2021/06/20 07:33:55;;;;;;;16.13;6.82;;;;;;;;;;5018767;28;20030;-82
2021/06/20 07:36:21;;;;;;;16.67;7.07;;;;;;;;;;5019103;28;20041;-82
2021/06/20 07:38:47;;;;;;;16.35;6.75;;;;;;;;;;5018926;28;20110;-82
2021/06/20 07:41:14;;;;;;;13.77;6.60;;;;;;;;;;5019016;28;20502;-82
2021/06/20 07:43:40;;;;;;;13.02;6.25;;;;;;;;;;5019127;28;20022;-81
2021/06/20 07:46:06;;;;;;;22.08;7.13;;;;;;;;;;5033506;28;20029;-82
2021/06/20 07:48:34;;;;;;;15.73;6.70;;;;;;;;;;5016357;28;20018;-82
2021/06/20 07:51:00;;;;;;;21.67;5.88;;;;;;;;;;5020542;28;20025;-82
2021/06/20 07:53:30;;;;;;;22.55;7.20;;;;;;;;;;5043635;22;20039;-79
2021/06/20 07:55:56;;;;;;;18.45;6.85;;;;;;;;;;5005198;28;20049;-82
2021/06/20 07:58:22;;;;;;;19.02;6.80;;;;;;;;;;4995328;28;20027;-81
2021/06/20 08:00:48;;;;;;;20.60;7.65;;;;;;;;;;5015206;28;20034;-78
2021/06/20 08:03:14;;;;;;;15.93;6.63;;;;;;;;;;4998566;28;20034;-81
2021/06/20 08:05:40;;;;;;;16.88;7.25;;;;;;;;;;5015787;28;20098;-81
2021/06/20 08:08:06;;;;;;;14.18;6.00;;;;;;;;;;5016032;28;20034;-79
2021/06/20 08:10:32;;;;;;;16.85;6.13;;;;;;;;;;5015561;28;20031;-82
2021/06/20 08:12:58;;;;;;;18.50;6.38;;;;;;;;;;5016442;28;20050;-80
2021/06/20 08:15:27;;;;;;;13.63;5.50;;;;;;;;;;5006120;28;20027;-81
2021/06/20 08:17:53;;;;;;;25.38;6.75;;;;;;;;;;5013676;28;20026;-79
2021/06/20 08:20:20;;;;;;;21.48;6.72;;;;;;;;;;5025803;28;20022;-78
2021/06/20 08:22:46;;;;;;;18.80;6.68;;;;;;;;;;5036038;28;20076;-80
2021/06/20 08:25:13;;;;;;;18.85;6.90;;;;;;;;;;5028680;28;20061;-82
2021/06/20 08:27:40;;;;;;;22.98;6.43;;;;;;;;;;5000335;28;20038;-82
2021/06/20 08:30:07;;;;;;;23.73;7.43;;;;;;;;;;5009246;28;20040;-81
2021/06/20 08:32:33;;;;;;;17.70;6.70;;;;;;;;;;4989123;28;20026;-83
2021/06/20 08:35:03;;;;;;;18.27;5.80;;;;;;;;;;4986898;28;20022;-85
2021/06/20 08:37:29;;;;;;;12.60;5.45;;;;;;;;;;5003997;28;20018;-83
2021/06/20 08:39:58;;;;;;;17.08;6.10;;;;;;;;;;5000355;28;20023;-83
2021/06/20 08:42:27;;;;;;;17.40;5.57;;;;;;;;;;5002086;28;20046;-83
2021/06/20 08:44:56;;;;;;;15.43;5.57;;;;;;;;;;4987767;28;20027;-84
2021/06/20 08:47:22;;;;;;;20.17;5.18;;;;;;;;;;4986129;28;20042;-85
2021/06/20 08:49:48;;;;;;;15.63;5.55;;;;;;;;;;4991516;28;20030;-81
2021/06/20 08:52:14;;;;;;;17.17;5.75;;;;;;;;;;5007125;28;20094;-79
2021/06/20 08:55:00;;;;;;;23.83;6.45;;;;;;;;;;4997593;28;20038;-84
2021/06/20 08:57:29;;;;;;;20.80;6.20;;;;;;;;;;4991024;28;20045;-81
2021/06/20 08:59:55;;;;;;;26.35;5.85;;;;;;;;;;4995847;28;20073;-83
2021/06/20 09:02:25;;;;;;;16.17;4.63;;;;;;;;;;4986018;28;20032;-81
2021/06/20 09:04:55;;;;;;;27.00;6.45;;;;;;;;;;4986077;28;20057;-82
2021/06/20 09:07:29;;;;;;;19.13;4.95;;;;;;;;;;4984634;28;20452;-84
2021/06/20 09:10:08;;;;;;;19.15;6.00;;;;;;;;;;4988262;28;20042;-82
2021/06/20 09:12:41;;;;;;;16.45;5.57;;;;;;;;;;4986717;28;20332;-81
2021/06/20 09:15:07;;;;;;;14.48;4.63;;;;;;;;;;5002591;28;20027;-83
2021/06/20 09:17:34;;;;;;;25.33;5.15;;;;;;;;;;4992144;28;20026;-82
2021/06/20 09:20:04;;;;;;;13.60;4.55;;;;;;;;;;5006944;28;20378;-83
2021/06/20 09:22:30;;;;;;;16.67;4.63;;;;;;;;;;5010787;28;20088;-79
2021/06/20 09:25:03;;;;;;;18.23;5.45;;;;;;;;;;5014118;28;20249;-80
2021/06/20 09:27:29;;;;;;;14.95;4.88;;;;;;;;;;5002025;28;20037;-84
2021/06/20 09:29:55;;;;;;;18.80;4.90;;;;;;;;;;5008070;28;20034;-83
2021/06/20 09:32:21;;;;;;;19.25;5.53;;;;;;;;;;4990330;28;20030;-84
2021/06/20 09:34:54;;;;;;;20.98;5.85;;;;;;;;;;5009367;28;20117;-83
2021/06/20 09:37:21;;;;;;;22.02;6.38;;;;;;;;;;5009069;28;20029;-84
2021/06/20 09:39:47;;;;;;;20.52;4.95;;;;;;;;;;5009079;28;20471;-84
2021/06/20 09:42:14;;;;;;;23.38;6.38;;;;;;;;;;4990028;28;20167;-83
2021/06/20 09:44:40;;;;;;;16.75;5.40;;;;;;;;;;4992527;28;20393;-83
2021/06/20 09:47:08;;;;;;;24.80;5.47;;;;;;;;;;4990313;28;20061;-84
2021/06/20 09:49:34;;;;;;;25.27;6.25;;;;;;;;;;5016069;28;20046;-83
2021/06/20 09:52:00;;;;;;;19.65;6.85;;;;;;;;;;5023384;28;20049;-83
2021/06/20 09:54:33;;;;;;;24.58;6.75;;;;;;;;;;5028310;28;20500;-81
2021/06/20 09:57:00;;;;;;;26.20;5.70;;;;;;;;;;4990832;28;20030;-84
2021/06/20 09:59:27;;;;;;;21.23;6.60;;;;;;;;;;5009884;28;20066;-81
2021/06/20 10:01:53;;;;;;;22.55;5.80;;;;;;;;;;5007354;28;20022;-81
2021/06/20 10:04:19;;;;;;;18.25;5.47;;;;;;;;;;4998606;28;20097;-80
2021/06/20 10:06:45;;;;;;;19.38;5.80;;;;;;;;;;5005767;28;20039;-81
2021/06/20 10:09:11;;;;;;;20.60;5.45;;;;;;;;;;5013032;28;20034;-80
2021/06/20 10:11:37;;;;;;;20.42;5.07;;;;;;;;;;5010465;28;20022;-83
2021/06/20 10:14:03;;;;;;;15.60;4.45;;;;;;;;;;4992906;28;20018;-82
2021/06/20 10:16:32;;;;;;;13.15;4.28;;;;;;;;;;4994683;28;20039;-83
2021/06/20 10:19:15;;;;;;;22.45;5.30;;;;;;;;;;5011492;28;20048;-81
2021/06/20 10:21:43;;;;;;;17.20;5.18;;;;;;;;;;4965617;28;20042;-81
2021/06/20 10:24:09;;;;;;;21.30;5.10;;;;;;;;;;4982714;28;20023;-81
2021/06/20 10:26:37;;;;;;;23.05;5.57;;;;;;;;;;4981904;28;20031;-80
2021/06/20 10:29:15;;;;;;;17.20;5.28;;;;;;;;;;4981315;28;20034;-82
2021/06/20 10:31:41;;;;;;;16.30;6.30;;;;;;;;;;4995158;28;20037;-83
2021/06/20 10:34:17;;;;;;;16.63;5.05;;;;;;;;;;4982797;28;20560;-82
2021/06/20 10:36:44;;;;;;;21.13;6.07;;;;;;;;;;4965358;28;20053;-81
2021/06/20 10:39:12;;;;;;;20.98;5.93;;;;;;;;;;4962563;28;20027;-83
2021/06/20 10:41:38;;;;;;;12.38;4.50;;;;;;;;;;4964170;28;20058;-81
2021/06/20 10:44:04;;;;;;;8.60;4.32;;;;;;;;;;4980978;28;20022;-82
2021/06/20 10:46:31;;;;;;;13.13;5.25;;;;;;;;;;4985455;28;20034;-83
2021/06/20 10:48:59;;;;;;;16.30;5.85;;;;;;;;;;4988079;28;20030;-83
2021/06/20 10:51:26;;;;;;;11.68;4.25;;;;;;;;;;5014225;28;20057;-84
2021/06/20 10:53:52;;;;;;;16.08;5.60;;;;;;;;;;5008410;28;20040;-80
2021/06/20 10:56:28;;;;;;;12.65;5.55;;;;;;;;;;5005603;28;20030;-83
2021/06/20 10:58:55;;;;;;;27.65;6.45;;;;;;;;;;4992988;28;20102;-82
2021/06/20 11:01:22;;;;;;;19.88;6.00;;;;;;;;;;4991880;28;20097;-83
2021/06/20 11:03:54;;;;;;;17.85;5.55;;;;;;;;;;5007297;28;20038;-82
2021/06/20 11:06:34;;;;;;;15.30;5.55;;;;;;;;;;5007876;28;20033;-82
2021/06/20 11:09:09;;;;;;;9.13;4.10;;;;;;;;;;4991933;28;20116;-82
2021/06/20 11:11:52;;;;;;;20.13;6.47;;;;;;;;;;4983318;28;20575;-84
2021/06/20 11:14:19;;;;;;;17.55;5.43;;;;;;;;;;5005030;28;20026;-84
2021/06/20 11:16:49;;;;;;;14.65;5.15;;;;;;;;;;5015883;28;20080;-84
2021/06/20 11:19:28;;;;;;;11.03;4.57;;;;;;;;;;5015976;28;20041;-84
2021/06/20 11:22:01;;;;;;;15.43;5.10;;;;;;;;;;4989005;28;20072;-82
2021/06/20 11:24:41;;;;;;;14.10;5.38;;;;;;;;;;5006585;28;20545;-83
2021/06/20 11:27:09;;;;;;;13.52;5.65;;;;;;;;;;4989754;28;20038;-83
2021/06/20 11:29:43;;;;;;;20.73;5.90;;;;;;;;;;5007037;28;20030;-81
2021/06/20 11:32:20;;;;;;;19.98;6.28;;;;;;;;;;5013553;28;20023;-79
2021/06/20 11:34:56;;;;;;;14.73;5.95;;;;;;;;;;5014128;28;20041;-82
2021/06/20 11:37:34;;;;;;;14.57;4.82;;;;;;;;;;5010253;28;20030;-82
2021/06/20 11:40:02;;;;;;;17.90;5.43;;;;;;;;;;5006390;28;20030;-81
2021/06/20 11:42:30;;;;;;;13.18;4.80;;;;;;;;;;4990574;28;20038;-81
2021/06/20 11:44:57;;;;;;;12.00;5.43;;;;;;;;;;5013923;28;20023;-81
2021/06/20 11:47:35;;;;;;;13.52;5.45;;;;;;;;;;5016806;28;20018;-79
2021/06/20 11:50:12;;;;;;;21.73;5.72;;;;;;;;;;5022377;28;20044;-82
2021/06/20 11:52:39;;;;;;;15.63;5.30;;;;;;;;;;5008782;28;20026;-81
2021/06/20 11:55:24;;;;;;;24.48;6.78;;;;;;;;;;5012762;28;20030;-81
2021/06/20 11:57:51;;;;;;;15.55;5.63;;;;;;;;;;5013371;28;20031;-83
2021/06/20 12:00:20;;;;;;;15.95;6.05;;;;;;;;;;5008817;28;20076;-83
2021/06/20 12:02:57;;;;;;;21.88;6.43;;;;;;;;;;4990739;28;20472;-82
2021/06/20 12:05:23;;;;;;;17.45;6.40;;;;;;;;;;4990124;28;20046;-81
2021/06/20 12:07:52;;;;;;;19.55;6.38;;;;;;;;;;4990570;28;20455;-83
2021/06/20 12:10:18;;;;;;;13.48;5.55;;;;;;;;;;4989007;28;20372;-82
2021/06/20 12:12:45;;;;;;;10.40;5.07;;;;;;;;;;4989822;28;20027;-84
2021/06/20 12:15:13;;;;;;;11.70;5.65;;;;;;;;;;4990707;28;20034;-83
2021/06/20 12:17:39;;;;;;;10.20;4.85;;;;;;;;;;4989096;28;20026;-82
2021/06/20 12:20:07;;;;;;;18.30;6.22;;;;;;;;;;5012913;28;20403;-83
2021/06/20 12:22:43;;;;;;;17.23;6.05;;;;;;;;;;5025458;28;20069;-82
2021/06/20 12:25:09;;;;;;;17.65;5.88;;;;;;;;;;5034801;28;20014;-82
2021/06/20 12:27:37;;;;;;;12.68;5.20;;;;;;;;;;5015353;28;20093;-83
2021/06/20 12:30:12;;;;;;;16.00;6.53;;;;;;;;;;4985765;28;20022;-83
2021/06/20 12:32:38;;;;;;;12.48;5.38;;;;;;;;;;4998467;28;20090;-79
2021/06/20 12:35:05;;;;;;;17.58;6.18;;;;;;;;;;4998842;28;20057;-81
2021/06/20 12:37:41;;;;;;;19.27;5.53;;;;;;;;;;5016129;28;20173;-78
2021/06/20 12:40:12;;;;;;;16.10;6.63;;;;;;;;;;5016862;28;20073;-80
2021/06/20 12:42:49;;;;;;;16.83;5.70;;;;;;;;;;5013249;28;20034;-79
2021/06/20 12:45:20;;;;;;;10.40;4.90;;;;;;;;;;5009116;28;20033;-80
2021/06/20 12:47:46;;;;;;;16.85;6.05;;;;;;;;;;5013026;28;20044;-80
2021/06/20 12:50:12;;;;;;;12.07;4.85;;;;;;;;;;5028554;28;20033;-83
2021/06/20 12:52:38;;;;;;;28.58;7.35;;;;;;;;;;5015527;28;20074;-80
2021/06/20 12:55:24;;;;;;;12.98;5.38;;;;;;;;;;4996761;28;20093;-83
2021/06/20 12:57:52;;;;;;;19.38;6.30;;;;;;;;;;5005521;28;20057;-83
2021/06/20 13:00:20;;;;;;;17.77;5.85;;;;;;;;;;4990004;28;20058;-79
2021/06/20 13:02:49;;;;;;;16.00;6.18;;;;;;;;;;5006712;28;20050;-81
2021/06/20 13:05:27;;;;;;;27.25;6.07;;;;;;;;;;5006765;28;20030;-81
2021/06/20 13:07:53;;;;;;;18.55;5.78;;;;;;;;;;5006048;28;20090;-84
2021/06/20 13:10:19;;;;;;;12.85;4.93;;;;;;;;;;5000586;28;20038;-83
2021/06/20 13:12:45;;;;;;;9.52;4.32;;;;;;;;;;5005694;28;20030;-84
2021/06/20 13:15:12;;;;;;;17.40;5.10;;;;;;;;;;5005365;28;20057;-84
2021/06/20 13:17:39;;;;;;;20.35;5.78;;;;;;;;;;5005456;28;20023;-82
2021/06/20 13:20:06;;;;;;;15.43;6.10;;;;;;;;;;5003106;28;20046;-83
2021/06/20 13:22:32;;;;;;;33.53;6.40;;;;;;;;;;4990327;28;20034;-83
2021/06/20 13:24:58;;;;;;;25.42;6.70;;;;;;;;;;5014141;28;20033;-83
2021/06/20 13:27:24;;;;;;;27.17;6.15;;;;;;;;;;5003963;28;20337;-82
2021/06/20 13:29:50;;;;;;;19.75;5.45;;;;;;;;;;5015030;28;20034;-81
2021/06/20 13:32:16;;;;;;;19.52;5.95;;;;;;;;;;5025562;28;20037;-83
2021/06/20 13:34:42;;;;;;;26.55;5.82;;;;;;;;;;5026080;28;20026;-82
2021/06/20 13:37:09;;;;;;;18.45;5.47;;;;;;;;;;4986636;28;20046;-83
2021/06/20 13:39:39;;;;;;;20.55;5.43;;;;;;;;;;5003625;28;20019;-82
2021/06/20 13:42:06;;;;;;;20.88;5.60;;;;;;;;;;5001780;28;20034;-82
2021/06/20 13:44:32;;;;;;;18.55;5.90;;;;;;;;;;5000018;28;20030;-81
2021/06/20 13:46:59;;;;;;;20.45;6.13;;;;;;;;;;5000239;28;20153;-80
2021/06/20 13:49:25;;;;;;;22.20;6.57;;;;;;;;;;5010382;28;20027;-82
2021/06/20 13:51:55;;;;;;;24.80;6.10;;;;;;;;;;4991301;28;20037;-81
2021/06/20 13:54:21;;;;;;;23.10;5.88;;;;;;;;;;5033256;23;20041;-79
2021/06/20 13:56:51;;;;;;;13.23;4.88;;;;;;;;;;5029260;28;20033;-81
2021/06/20 13:59:17;;;;;;;26.85;6.70;;;;;;;;;;5035037;28;20295;-79
2021/06/20 14:01:43;;;;;;;25.90;6.95;;;;;;;;;;5037703;28;20417;-80
2021/06/20 14:04:09;;;;;;;17.85;4.75;;;;;;;;;;5034381;28;20462;-79
2021/06/20 14:06:36;;;;;;;20.25;5.05;;;;;;;;;;5034688;28;20029;-79
2021/06/20 14:09:03;;;;;;;25.30;5.88;;;;;;;;;;5053743;28;20025;-78
2021/06/20 14:11:29;;;;;;;21.73;6.55;;;;;;;;;;5054303;28;20025;-80
2021/06/20 14:13:56;;;;;;;25.85;6.32;;;;;;;;;;5056557;28;20032;-80
2021/06/20 14:16:22;;;;;;;14.43;6.00;;;;;;;;;;5058369;28;20081;-85
2021/06/20 14:18:48;;;;;;;19.98;7.22;;;;;;;;;;5067143;28;20067;-82
2021/06/20 14:21:14;;;;;;;14.95;5.63;;;;;;;;;;5061152;28;20029;-81
2021/06/20 14:23:40;;;;;;;18.35;5.82;;;;;;;;;;5060240;28;20028;-80
2021/06/20 14:26:06;;;;;;;25.25;6.45;;;;;;;;;;5058841;28;20021;-80
2021/06/20 14:28:32;;;;;;;18.48;5.60;;;;;;;;;;5058774;28;20022;-81
2021/06/20 14:30:58;;;;;;;23.88;7.10;;;;;;;;;;5059320;28;20412;-81
2021/06/20 14:33:24;;;;;;;25.20;6.15;;;;;;;;;;5058773;28;20092;-80
2021/06/20 14:35:50;;;;;;;23.02;7.03;;;;;;;;;;5058620;28;20033;-80
2021/06/20 14:38:16;;;;;;;11.50;5.70;;;;;;;;;;5040626;28;20052;-80